createdAt,value
2018-08-31T00:00:40.005Z,14.00
2018-08-31T00:02:45.450Z,13.20
2018-08-31T00:04:50.673Z,10.73
2018-08-31T00:06:55.966Z,10.97
2018-08-31T00:09:01.372Z,8.87
2018-08-31T00:11:08.110Z,8.97
2018-08-31T00:13:13.266Z,11.33
2018-08-31T00:15:18.729Z,11.10
2018-08-31T00:17:24.227Z,11.80
2018-08-31T00:19:29.625Z,9.77
2018-08-31T00:21:35.454Z,9.40
2018-08-31T00:23:40.698Z,9.27
2018-08-31T00:25:45.939Z,8.67
2018-08-31T00:27:51.457Z,9.00
2018-08-31T00:29:56.929Z,10.43
2018-08-31T00:32:02.658Z,8.63
2018-08-31T00:34:08.151Z,8.33
2018-08-31T00:36:13.461Z,7.33
2018-08-31T00:38:18.909Z,7.97
2018-08-31T00:40:25.113Z,7.80
2018-08-31T00:42:30.583Z,6.90
2018-08-31T00:44:36.199Z,6.63
2018-08-31T00:46:41.554Z,8.60
2018-08-31T00:48:47.436Z,6.80
2018-08-31T00:50:52.572Z,5.97
2018-08-31T00:52:58.093Z,6.10
2018-08-31T00:55:03.541Z,5.43
2018-08-31T00:57:08.767Z,5.07
2018-08-31T00:59:14.220Z,5.30
2018-08-31T01:01:19.975Z,5.30
2018-08-31T01:03:25.263Z,4.80
2018-08-31T01:05:31.731Z,4.80
2018-08-31T01:07:37.100Z,5.37
2018-08-31T01:09:43.505Z,4.73
2018-08-31T01:11:49.291Z,4.60
2018-08-31T01:13:54.506Z,4.67
2018-08-31T01:16:00.428Z,4.30
2018-08-31T01:18:06.786Z,4.40
2018-08-31T01:20:12.433Z,4.17
2018-08-31T01:22:18.913Z,4.10
2018-08-31T01:24:24.438Z,5.03
2018-08-31T01:26:29.932Z,4.70
2018-08-31T01:28:35.350Z,4.13
2018-08-31T01:30:40.745Z,4.23
2018-08-31T01:32:46.070Z,4.67
2018-08-31T01:34:51.786Z,4.40
2018-08-31T01:36:57.449Z,4.37
2018-08-31T01:39:03.144Z,4.23
2018-08-31T01:41:08.573Z,4.43
2018-08-31T01:43:13.889Z,3.80
2018-08-31T01:45:19.420Z,4.77
2018-08-31T01:47:24.604Z,3.30
2018-08-31T01:49:30.830Z,3.70
2018-08-31T01:51:36.274Z,4.33
2018-08-31T01:53:41.695Z,3.93
2018-08-31T01:55:47.800Z,4.27
2018-08-31T01:57:53.031Z,3.67
2018-08-31T01:59:58.831Z,4.30
2018-08-31T02:02:04.382Z,4.00
2018-08-31T02:04:09.608Z,3.87
2018-08-31T02:09:06.100Z,3.67
2018-08-31T02:11:14.420Z,3.70
2018-08-31T02:13:20.070Z,3.27
2018-08-31T02:15:25.733Z,4.17
2018-08-31T02:17:30.900Z,3.50
2018-08-31T02:19:36.663Z,3.20
2018-08-31T02:21:42.080Z,3.40
2018-08-31T02:23:47.221Z,4.10
2018-08-31T02:25:52.651Z,3.10
2018-08-31T02:27:58.052Z,4.10
2018-08-31T02:30:03.491Z,3.60
2018-08-31T02:32:09.062Z,3.73
2018-08-31T02:34:14.337Z,3.70
2018-08-31T02:36:19.836Z,3.40
2018-08-31T02:38:25.057Z,4.10
2018-08-31T02:40:30.463Z,3.83
2018-08-31T02:42:35.783Z,3.57
2018-08-31T02:44:41.136Z,3.37
2018-08-31T02:46:46.330Z,3.60
2018-08-31T02:48:52.417Z,3.97
2018-08-31T02:50:57.544Z,4.03
2018-08-31T02:53:02.774Z,3.60
2018-08-31T02:55:08.339Z,4.03
2018-08-31T02:57:13.746Z,4.13
2018-08-31T02:59:19.413Z,3.40
2018-08-31T03:01:24.700Z,4.00
2018-08-31T03:03:30.051Z,4.03
2018-08-31T03:05:35.316Z,4.47
2018-08-31T03:07:40.874Z,3.93
2018-08-31T03:09:46.147Z,3.70
2018-08-31T03:11:51.295Z,3.60
2018-08-31T03:13:56.699Z,3.70
2018-08-31T03:16:01.890Z,3.63
2018-08-31T03:18:06.745Z,3.77
2018-08-31T03:20:11.820Z,3.30
2018-08-31T03:22:17.145Z,4.60
2018-08-31T03:24:22.406Z,4.10
2018-08-31T03:26:27.730Z,3.73
2018-08-31T03:28:33.364Z,4.00
2018-08-31T03:30:38.414Z,3.80
2018-08-31T03:32:43.411Z,3.73
2018-08-31T03:34:48.912Z,3.33
2018-08-31T03:36:54.061Z,3.20
2018-08-31T03:38:59.485Z,3.70
2018-08-31T03:41:04.554Z,3.50
2018-08-31T03:43:09.877Z,3.60
2018-08-31T03:45:15.170Z,2.93
2018-08-31T03:47:19.971Z,4.00
2018-08-31T03:49:25.748Z,3.50
2018-08-31T03:51:31.017Z,4.10
2018-08-31T03:53:36.121Z,4.27
2018-08-31T03:55:40.896Z,3.63
2018-08-31T03:57:46.263Z,3.50
2018-08-31T03:59:51.446Z,3.07
2018-08-31T04:01:57.303Z,3.50
2018-08-31T04:04:02.853Z,3.67
2018-08-31T04:06:08.587Z,3.60
2018-08-31T04:08:13.549Z,3.53
2018-08-31T04:10:18.960Z,3.23
2018-08-31T04:12:23.988Z,3.83
2018-08-31T04:14:29.595Z,3.60
2018-08-31T04:16:34.920Z,3.03
2018-08-31T04:18:40.213Z,3.67
2018-08-31T04:20:45.329Z,3.80
2018-08-31T04:22:50.495Z,3.40
2018-08-31T04:24:55.301Z,2.97
2018-08-31T04:27:00.747Z,3.27
2018-08-31T04:29:05.622Z,3.20
2018-08-31T04:31:10.940Z,3.30
2018-08-31T04:33:16.690Z,2.70
2018-08-31T04:35:22.209Z,3.00
2018-08-31T04:37:27.543Z,2.73
2018-08-31T04:39:32.530Z,3.20
2018-08-31T04:41:37.695Z,3.60
2018-08-31T04:43:42.821Z,2.83
2018-08-31T04:45:48.074Z,2.97
2018-08-31T04:47:53.137Z,3.23
2018-08-31T04:49:57.996Z,3.20
2018-08-31T04:52:03.232Z,2.47
2018-08-31T04:54:08.936Z,2.57
2018-08-31T04:56:14.350Z,3.67
2018-08-31T04:58:19.351Z,2.97
2018-08-31T05:00:28.458Z,3.17
2018-08-31T05:02:33.443Z,3.63
2018-08-31T05:04:38.468Z,3.30
2018-08-31T05:06:43.280Z,3.63
2018-08-31T05:08:48.430Z,3.10
2018-08-31T05:10:53.525Z,2.70
2018-08-31T05:12:58.550Z,3.67
2018-08-31T05:15:03.611Z,2.73
2018-08-31T05:17:09.204Z,2.47
2018-08-31T05:19:14.076Z,3.27
2018-08-31T05:21:18.971Z,3.13
2018-08-31T05:23:24.238Z,2.90
2018-08-31T05:25:29.333Z,2.80
2018-08-31T05:27:34.830Z,3.23
2018-08-31T05:29:39.874Z,2.70
2018-08-31T05:31:44.945Z,2.53
2018-08-31T05:33:50.198Z,2.87
2018-08-31T05:35:55.524Z,2.70
2018-08-31T05:38:00.776Z,2.77
2018-08-31T05:40:05.999Z,2.60
2018-08-31T05:42:11.202Z,2.93
2018-08-31T05:44:16.547Z,2.50
2018-08-31T05:46:21.248Z,2.77
2018-08-31T05:48:27.221Z,3.20
2018-08-31T05:50:32.235Z,2.83
2018-08-31T05:52:37.382Z,2.90
2018-08-31T05:54:42.262Z,3.30
2018-08-31T05:56:47.148Z,3.10
2018-08-31T05:58:52.338Z,3.03
2018-08-31T06:00:57.667Z,3.20
2018-08-31T06:03:03.015Z,2.70
2018-08-31T06:05:08.048Z,2.97
2018-08-31T06:07:13.526Z,2.83
2018-08-31T06:09:18.585Z,3.00
2018-08-31T06:11:23.830Z,3.00
2018-08-31T06:13:29.008Z,2.80
2018-08-31T06:15:34.108Z,2.87
2018-08-31T06:17:39.420Z,2.97
2018-08-31T06:19:44.631Z,2.60
2018-08-31T06:21:49.886Z,3.20
2018-08-31T06:23:55.182Z,3.57
2018-08-31T06:26:00.458Z,2.93
2018-08-31T06:28:05.726Z,3.07
2018-08-31T06:30:10.956Z,3.27
2018-08-31T06:32:16.298Z,3.60
2018-08-31T06:34:21.379Z,3.33
2018-08-31T06:36:26.697Z,4.07
2018-08-31T06:38:31.911Z,3.63
2018-08-31T06:40:36.945Z,3.50
2018-08-31T06:42:42.055Z,2.90
2018-08-31T06:44:47.229Z,3.60
2018-08-31T06:46:52.101Z,3.93
2018-08-31T06:48:57.059Z,4.00
2018-08-31T06:51:02.201Z,3.73
2018-08-31T06:53:21.550Z,3.93
2018-08-31T06:55:26.751Z,3.47
2018-08-31T06:57:31.751Z,3.63
2018-08-31T06:59:36.626Z,3.47
2018-08-31T07:01:41.896Z,3.60
2018-08-31T07:03:46.936Z,3.77
2018-08-31T07:05:52.195Z,4.10
2018-08-31T07:07:57.333Z,4.53
2018-08-31T07:10:02.342Z,2.60
2018-08-31T07:12:08.054Z,3.43
2018-08-31T07:14:13.211Z,4.30
2018-08-31T07:16:18.112Z,3.20
2018-08-31T07:18:23.722Z,3.60
2018-08-31T07:20:28.724Z,3.90
2018-08-31T07:22:33.788Z,4.30
2018-08-31T07:24:38.925Z,3.93
2018-08-31T07:26:44.650Z,3.57
2018-08-31T07:28:50.160Z,4.20
2018-08-31T07:30:55.269Z,3.60
2018-08-31T07:33:00.372Z,3.60
2018-08-31T07:35:05.554Z,3.97
2018-08-31T07:37:10.898Z,4.07
2018-08-31T07:39:16.180Z,3.87
2018-08-31T07:41:21.081Z,3.67
2018-08-31T07:43:25.571Z,3.90
2018-08-31T07:45:30.880Z,4.40
2018-08-31T07:47:35.859Z,3.30
2018-08-31T07:49:40.811Z,3.70
2018-08-31T07:51:45.945Z,3.83
2018-08-31T07:53:51.174Z,4.40
2018-08-31T07:55:56.300Z,3.97
2018-08-31T07:58:01.629Z,3.33
2018-08-31T08:00:06.684Z,3.83
2018-08-31T08:02:11.774Z,3.80
2018-08-31T08:04:16.839Z,4.10
2018-08-31T08:06:21.888Z,3.80
2018-08-31T08:08:27.138Z,4.17
2018-08-31T08:10:32.128Z,2.70
2018-08-31T08:12:37.068Z,3.80
2018-08-31T08:14:42.098Z,4.00
2018-08-31T08:16:47.328Z,4.20
2018-08-31T08:18:52.743Z,4.90
2018-08-31T08:20:57.523Z,6.07
2018-08-31T08:23:02.317Z,8.40
2018-08-31T08:25:07.341Z,9.40
2018-08-31T08:27:12.447Z,8.67
2018-08-31T08:29:17.897Z,8.73
2018-08-31T08:31:22.988Z,8.50
2018-08-31T08:33:28.299Z,9.33
2018-08-31T08:35:33.337Z,9.60
2018-08-31T08:37:38.155Z,9.60
2018-08-31T08:39:43.457Z,10.23
2018-08-31T08:41:49.039Z,7.93
2018-08-31T08:43:55.040Z,8.70
2018-08-31T08:46:00.242Z,8.10
2018-08-31T08:48:05.193Z,8.70
2018-08-31T08:50:10.607Z,8.37
2018-08-31T08:52:15.720Z,8.53
2018-08-31T08:54:20.953Z,9.00
2018-08-31T08:56:26.317Z,8.33
2018-08-31T08:58:31.647Z,9.40
2018-08-31T09:00:36.595Z,10.07
2018-08-31T09:02:41.708Z,9.63
2018-08-31T09:04:48.778Z,9.43
2018-08-31T09:06:53.925Z,10.63
2018-08-31T09:08:58.952Z,9.43
2018-08-31T09:11:04.096Z,9.50
2018-08-31T09:13:09.140Z,8.70
2018-08-31T09:15:14.064Z,10.13
2018-08-31T09:17:19.205Z,9.70
2018-08-31T09:19:24.383Z,10.20
2018-08-31T09:21:30.763Z,10.20
2018-08-31T09:23:36.044Z,9.40
2018-08-31T09:25:41.290Z,8.63
2018-08-31T09:27:46.080Z,9.90
2018-08-31T09:29:51.470Z,9.67
2018-08-31T09:31:56.661Z,9.73
2018-08-31T09:34:01.739Z,9.67
2018-08-31T09:36:07.069Z,9.67
2018-08-31T09:38:13.840Z,10.20
2018-08-31T09:40:19.136Z,9.70
2018-08-31T09:42:24.138Z,10.17
2018-08-31T09:44:29.392Z,8.70
2018-08-31T09:46:34.548Z,9.73
2018-08-31T09:48:39.722Z,10.00
2018-08-31T09:50:44.775Z,9.77
2018-08-31T09:52:50.086Z,9.37
2018-08-31T09:54:55.295Z,10.63
2018-08-31T09:57:00.595Z,10.80
2018-08-31T09:59:05.559Z,10.93
2018-08-31T10:01:14.783Z,9.77
2018-08-31T10:03:25.427Z,10.40
2018-08-31T10:05:30.947Z,12.27
2018-08-31T10:07:36.774Z,11.50
2018-08-31T10:09:42.111Z,11.93
2018-08-31T10:11:47.479Z,11.50
2018-08-31T10:13:52.618Z,14.27
2018-08-31T10:15:57.910Z,16.20
2018-08-31T10:18:03.207Z,13.63
2018-08-31T10:20:09.083Z,16.60
2018-08-31T10:22:14.044Z,15.13
2018-08-31T10:24:20.463Z,14.40
2018-08-31T10:26:25.479Z,15.00
2018-08-31T10:28:31.014Z,15.73
2018-08-31T10:30:35.958Z,19.60
2018-08-31T10:32:41.571Z,15.40
2018-08-31T10:34:46.679Z,16.73
2018-08-31T10:36:52.537Z,15.27
2018-08-31T10:38:57.745Z,15.90
2018-08-31T10:41:03.661Z,15.37
2018-08-31T10:43:08.702Z,14.67
2018-08-31T10:45:13.804Z,15.83
2018-08-31T10:47:19.015Z,15.73
2018-08-31T10:49:24.549Z,15.77
2018-08-31T10:51:29.461Z,15.93
2018-08-31T10:53:34.837Z,15.23
2018-08-31T10:55:40.221Z,15.93
2018-08-31T10:57:45.690Z,15.00
2018-08-31T10:59:51.163Z,14.80
2018-08-31T11:01:56.593Z,15.20
2018-08-31T11:04:01.762Z,14.57
2018-08-31T11:06:07.253Z,14.70
2018-08-31T11:08:12.661Z,16.00
2018-08-31T11:10:18.043Z,14.40
2018-08-31T11:12:24.053Z,14.97
2018-08-31T11:14:29.425Z,14.67
2018-08-31T11:16:34.232Z,14.30
2018-08-31T11:18:39.947Z,14.97
2018-08-31T11:20:45.093Z,15.03
2018-08-31T11:22:50.293Z,14.07
2018-08-31T11:24:55.404Z,14.33
2018-08-31T11:27:00.635Z,13.80
2018-08-31T11:29:05.565Z,15.33
2018-08-31T11:31:10.790Z,13.90
2018-08-31T11:33:15.847Z,14.77
2018-08-31T11:35:20.653Z,14.40
2018-08-31T11:37:25.891Z,13.43
2018-08-31T11:39:31.012Z,14.63
2018-08-31T11:41:36.402Z,14.27
2018-08-31T11:43:41.554Z,13.80
2018-08-31T11:45:47.237Z,14.23
2018-08-31T11:47:52.418Z,12.70
2018-08-31T11:49:58.015Z,13.90
2018-08-31T11:52:03.591Z,14.20
2018-08-31T11:54:08.678Z,14.17
2018-08-31T11:56:13.621Z,13.70
2018-08-31T11:58:18.995Z,13.30
2018-08-31T12:00:24.224Z,12.23
2018-08-31T12:02:29.493Z,12.00
2018-08-31T12:04:35.413Z,14.00
2018-08-31T12:06:40.491Z,13.50
2018-08-31T12:08:45.789Z,13.37
2018-08-31T12:10:50.970Z,13.97
2018-08-31T12:12:55.762Z,13.13
2018-08-31T12:15:00.846Z,13.17
2018-08-31T12:17:06.325Z,13.03
2018-08-31T12:19:11.471Z,13.43
2018-08-31T12:21:16.459Z,14.40
2018-08-31T12:23:21.552Z,13.70
2018-08-31T12:25:26.798Z,14.17
2018-08-31T12:27:31.731Z,13.30
2018-08-31T12:29:37.020Z,14.40
2018-08-31T12:31:42.131Z,14.07
2018-08-31T12:33:47.608Z,14.70
2018-08-31T12:35:52.914Z,12.90
2018-08-31T12:37:57.923Z,12.73
2018-08-31T12:40:03.228Z,14.10
2018-08-31T12:42:08.189Z,15.10
2018-08-31T12:44:13.795Z,12.80
2018-08-31T12:46:19.294Z,12.63
2018-08-31T12:48:24.493Z,13.40
2018-08-31T12:50:29.811Z,12.80
2018-08-31T12:52:34.855Z,13.00
2018-08-31T12:54:39.727Z,13.60
2018-08-31T12:56:44.896Z,13.07
2018-08-31T12:58:50.056Z,12.40
2018-08-31T13:00:56.209Z,13.80
2018-08-31T13:03:02.233Z,13.33
2018-08-31T13:05:07.734Z,16.63
2018-08-31T13:07:12.906Z,17.60
2018-08-31T13:09:18.351Z,15.83
2018-08-31T13:11:23.699Z,16.90
2018-08-31T13:13:28.973Z,16.37
2018-08-31T13:15:33.857Z,16.40
2018-08-31T13:17:39.346Z,15.10
2018-08-31T13:19:44.472Z,15.93
2018-08-31T13:21:49.476Z,15.90
2018-08-31T13:23:54.891Z,15.10
2018-08-31T13:26:00.603Z,13.87
2018-08-31T13:28:05.777Z,14.77
2018-08-31T13:30:10.991Z,15.10
2018-08-31T13:32:16.540Z,14.07
2018-08-31T13:34:22.417Z,14.20
2018-08-31T13:36:27.457Z,15.13
2018-08-31T13:38:32.868Z,14.93
2018-08-31T13:40:37.927Z,14.63
2018-08-31T13:42:44.121Z,14.80
2018-08-31T13:44:49.144Z,15.10
2018-08-31T13:46:54.414Z,14.53
2018-08-31T13:48:59.709Z,15.47
2018-08-31T13:51:05.464Z,14.83
2018-08-31T13:53:10.329Z,16.80
2018-08-31T13:55:15.234Z,14.40
2018-08-31T13:57:20.037Z,14.20
2018-08-31T13:59:25.237Z,14.37
2018-08-31T14:01:31.581Z,14.57
2018-08-31T14:03:36.907Z,16.90
2018-08-31T14:05:41.975Z,14.47
2018-08-31T14:07:47.269Z,16.33
2018-08-31T14:09:52.416Z,15.03
2018-08-31T14:11:57.811Z,15.10
2018-08-31T14:14:03.097Z,16.27
2018-08-31T14:16:08.316Z,15.37
2018-08-31T14:18:13.666Z,15.60
2018-08-31T14:20:19.131Z,16.90
2018-08-31T14:22:24.327Z,16.10
2018-08-31T14:24:29.427Z,14.70
2018-08-31T14:26:35.036Z,15.30
2018-08-31T14:28:40.051Z,15.10
2018-08-31T14:30:45.339Z,14.80
2018-08-31T14:32:50.592Z,16.70
2018-08-31T14:34:56.136Z,16.60
2018-08-31T14:37:01.365Z,16.33
2018-08-31T14:39:07.538Z,17.53
2018-08-31T14:41:13.712Z,16.30
2018-08-31T14:43:19.537Z,16.70
2018-08-31T14:45:25.359Z,17.07
2018-08-31T14:47:31.101Z,17.37
2018-08-31T14:49:36.253Z,18.43
2018-08-31T14:51:41.585Z,19.20
2018-08-31T14:53:47.309Z,28.33
2018-08-31T14:55:52.697Z,32.27
2018-08-31T14:57:57.881Z,34.27
2018-08-31T15:00:03.350Z,33.90
2018-08-31T15:02:08.446Z,34.90
2018-08-31T15:04:13.444Z,32.30
2018-08-31T15:06:18.649Z,34.00
2018-08-31T15:08:23.321Z,32.97
2018-08-31T15:10:28.366Z,33.10
2018-08-31T15:12:34.014Z,33.70
2018-08-31T15:14:38.738Z,33.17
2018-08-31T15:16:44.369Z,29.93
2018-08-31T15:18:49.111Z,31.80
2018-08-31T15:20:54.172Z,30.97
2018-08-31T15:22:59.962Z,30.10
2018-08-31T15:25:05.136Z,34.10
2018-08-31T15:27:10.488Z,34.07
2018-08-31T15:29:15.539Z,33.57
2018-08-31T15:31:20.832Z,32.47
2018-08-31T15:33:26.661Z,31.47
2018-08-31T15:35:32.397Z,31.67
2018-08-31T15:37:38.182Z,31.63
2018-08-31T15:39:43.635Z,31.63
2018-08-31T15:41:49.464Z,30.43
2018-08-31T15:43:54.677Z,33.70
2018-08-31T15:45:59.898Z,32.37
2018-08-31T15:48:05.434Z,31.97
2018-08-31T15:50:10.813Z,32.23
2018-08-31T15:52:16.202Z,31.20
2018-08-31T15:54:21.623Z,34.30
2018-08-31T15:56:26.865Z,30.97
2018-08-31T15:58:32.013Z,32.63
2018-08-31T16:00:37.759Z,32.67
2018-08-31T16:02:43.425Z,32.30
2018-08-31T16:04:48.871Z,30.70
2018-08-31T16:06:53.930Z,31.37
2018-08-31T16:08:59.491Z,32.53
2018-08-31T16:11:05.029Z,32.13
2018-08-31T16:13:10.307Z,31.43
2018-08-31T16:15:15.574Z,31.10
2018-08-31T16:17:20.791Z,32.00
2018-08-31T16:19:25.854Z,29.77
2018-08-31T16:21:30.977Z,31.33
2018-08-31T16:23:36.140Z,30.93
2018-08-31T16:25:41.368Z,30.50
2018-08-31T16:27:47.007Z,28.07
2018-08-31T16:29:52.498Z,30.27
2018-08-31T16:31:57.827Z,28.53
2018-08-31T16:34:03.161Z,28.50
2018-08-31T16:36:08.892Z,28.23
2018-08-31T16:38:14.753Z,28.43
2018-08-31T16:40:19.796Z,27.03
2018-08-31T16:42:24.908Z,27.60
2018-08-31T16:44:30.801Z,28.10
2018-08-31T16:46:36.418Z,27.53
2018-08-31T16:48:42.239Z,27.10
2018-08-31T16:50:47.778Z,26.93
2018-08-31T16:52:53.671Z,26.67
2018-08-31T16:54:59.046Z,23.43
2018-08-31T16:57:04.154Z,27.17
2018-08-31T16:59:09.903Z,26.37
2018-08-31T17:01:14.826Z,25.93
2018-08-31T17:03:19.821Z,26.87
2018-08-31T17:05:26.077Z,27.13
2018-08-31T17:07:31.252Z,27.80
2018-08-31T17:09:37.548Z,25.03
2018-08-31T17:11:43.017Z,25.90
2018-08-31T17:13:48.267Z,27.23
2018-08-31T17:15:57.812Z,26.20
2018-08-31T17:18:03.419Z,25.40
2018-08-31T17:20:09.918Z,24.20
2018-08-31T17:22:15.049Z,24.87
2018-08-31T17:24:20.178Z,25.60
2018-08-31T17:26:29.279Z,25.80
2018-08-31T17:28:38.302Z,24.90
2018-08-31T17:30:42.989Z,23.97
2018-08-31T17:32:52.208Z,24.30
2018-08-31T17:35:01.220Z,25.87
2018-08-31T17:37:10.454Z,23.20
2018-08-31T17:39:16.216Z,25.17
2018-08-31T17:41:21.097Z,25.40
2018-08-31T17:43:26.284Z,24.20
2018-08-31T17:45:31.547Z,24.93
2018-08-31T17:47:36.897Z,24.17
2018-08-31T17:49:42.084Z,23.30
2018-08-31T17:51:47.457Z,22.80
2018-08-31T17:53:54.276Z,23.23
2018-08-31T17:56:00.266Z,23.33
2018-08-31T17:58:05.758Z,23.40
2018-08-31T18:00:12.734Z,23.93
2018-08-31T18:02:22.082Z,22.17
2018-08-31T18:04:27.402Z,24.67
2018-08-31T18:06:32.734Z,24.50
2018-08-31T18:08:37.974Z,23.23
2018-08-31T18:10:43.832Z,22.80
2018-08-31T18:12:49.272Z,21.63
2018-08-31T18:14:54.325Z,23.17
2018-08-31T18:17:00.368Z,21.60
2018-08-31T18:19:05.693Z,22.87
2018-08-31T18:21:10.613Z,21.57
2018-08-31T18:23:16.469Z,22.10
2018-08-31T18:25:22.574Z,23.20
2018-08-31T18:27:28.117Z,23.23
2018-08-31T18:29:33.474Z,22.07
2018-08-31T18:31:39.483Z,22.30
2018-08-31T18:33:44.592Z,23.30
2018-08-31T18:35:50.168Z,22.77
2018-08-31T18:37:54.917Z,22.20
2018-08-31T18:40:00.191Z,22.20
2018-08-31T18:42:05.828Z,22.50
2018-08-31T18:44:11.154Z,23.30
2018-08-31T18:46:16.751Z,23.53
2018-08-31T18:48:22.288Z,23.57
2018-08-31T18:50:27.589Z,23.40
2018-08-31T18:52:33.087Z,22.77
2018-08-31T18:54:38.773Z,23.67
2018-08-31T18:56:43.725Z,23.50
2018-08-31T18:58:48.912Z,23.30
2018-08-31T19:00:54.780Z,21.73
2018-08-31T19:03:00.386Z,22.53
2018-08-31T19:05:05.526Z,21.10
2018-08-31T19:07:10.574Z,23.00
2018-08-31T19:09:15.770Z,22.70
2018-08-31T19:11:20.949Z,20.47
2018-08-31T19:13:26.135Z,22.73
2018-08-31T19:15:31.677Z,21.00
2018-08-31T19:17:37.343Z,21.13
2018-08-31T19:19:42.858Z,22.60
2018-08-31T19:21:47.898Z,22.70
2018-08-31T19:23:53.108Z,22.37
2018-08-31T19:25:58.537Z,22.10
2018-08-31T19:28:04.099Z,19.97
2018-08-31T19:30:09.283Z,20.90
2018-08-31T19:32:14.748Z,21.50
2018-08-31T19:34:20.420Z,21.60
2018-08-31T19:36:25.549Z,22.00
2018-08-31T19:38:31.363Z,21.10
2018-08-31T19:40:36.720Z,22.33
2018-08-31T19:42:41.869Z,22.20
2018-08-31T19:44:47.241Z,21.77
2018-08-31T19:46:52.423Z,20.63
2018-08-31T19:48:58.201Z,20.33
2018-08-31T19:51:03.687Z,19.37
2018-08-31T19:53:09.069Z,21.83
2018-08-31T19:55:14.215Z,21.07
2018-08-31T19:57:20.676Z,20.10
2018-08-31T20:00:28.424Z,19.73
2018-08-31T20:02:33.703Z,21.10
2018-08-31T20:04:53.060Z,18.70
2018-08-31T20:06:59.081Z,19.77
2018-08-31T20:09:03.967Z,20.80
2018-08-31T20:11:09.323Z,21.17
2018-08-31T20:13:14.352Z,19.90
2018-08-31T20:15:19.641Z,18.80
2018-08-31T20:17:25.015Z,20.73
2018-08-31T20:19:30.865Z,19.80
2018-08-31T20:21:35.874Z,19.37
2018-08-31T20:23:41.297Z,19.23
2018-08-31T20:25:46.385Z,19.80
2018-08-31T20:27:51.200Z,18.27
2018-08-31T20:29:56.625Z,18.90
2018-08-31T20:32:01.939Z,18.80
2018-08-31T20:34:07.202Z,19.20
2018-08-31T20:36:12.183Z,19.53
2018-08-31T20:38:17.619Z,19.43
2018-08-31T20:40:23.041Z,18.97
2018-08-31T20:42:27.763Z,19.20
2018-08-31T20:44:32.749Z,19.30
2018-08-31T20:46:38.085Z,18.00
2018-08-31T20:48:43.528Z,19.73
2018-08-31T20:50:48.456Z,19.47
2018-08-31T20:52:53.723Z,19.90
2018-08-31T20:54:58.848Z,20.67
2018-08-31T20:57:04.061Z,18.50
2018-08-31T20:59:09.799Z,19.70
2018-08-31T21:01:15.303Z,18.80
2018-08-31T21:03:20.742Z,16.70
2018-08-31T21:05:26.135Z,18.73
2018-08-31T21:07:31.306Z,18.57
2018-08-31T21:09:36.766Z,19.37
2018-08-31T21:11:42.266Z,18.60
2018-08-31T21:13:47.347Z,19.27
2018-08-31T21:15:52.770Z,18.27
2018-08-31T21:20:09.856Z,17.37
2018-08-31T21:22:15.158Z,18.00
2018-08-31T21:24:20.566Z,17.30
2018-08-31T21:26:26.051Z,18.63
2018-08-31T21:28:31.366Z,18.70
2018-08-31T21:30:36.675Z,17.83
2018-08-31T21:32:43.256Z,18.07
2018-08-31T21:34:48.857Z,18.07
2018-08-31T21:36:54.021Z,19.10
2018-08-31T21:38:59.415Z,19.13
2018-08-31T21:41:04.957Z,16.97
2018-08-31T21:43:10.942Z,17.40
2018-08-31T21:45:16.641Z,18.10
2018-08-31T21:47:21.769Z,19.37
2018-08-31T21:49:27.025Z,19.63
2018-08-31T21:51:32.828Z,18.13
2018-08-31T21:53:38.289Z,17.63
2018-08-31T21:55:43.719Z,16.33
2018-08-31T21:57:49.495Z,17.33
2018-08-31T21:59:54.874Z,17.00
2018-08-31T22:02:00.208Z,18.97
2018-08-31T22:04:05.716Z,16.60
2018-08-31T22:06:10.952Z,17.20
2018-08-31T22:08:16.261Z,16.77
2018-08-31T22:10:21.227Z,17.70
2018-08-31T22:12:26.296Z,18.43
2018-08-31T22:14:31.897Z,18.50
2018-08-31T22:16:38.416Z,15.90
2018-08-31T22:18:43.900Z,16.20
2018-08-31T22:20:49.285Z,17.00
2018-08-31T22:22:55.600Z,14.67
2018-08-31T22:25:00.539Z,16.90
2018-08-31T22:27:05.621Z,16.27
2018-08-31T22:29:11.801Z,17.73
2018-08-31T22:31:17.952Z,17.40
2018-08-31T22:33:23.777Z,18.27
2018-08-31T22:35:29.167Z,16.83
2018-08-31T22:37:34.476Z,16.70
2018-08-31T22:39:40.016Z,18.10
2018-08-31T22:44:15.445Z,17.60
2018-08-31T22:46:20.543Z,18.17
2018-08-31T22:48:26.008Z,17.70
2018-08-31T22:50:31.216Z,15.83
2018-08-31T22:52:36.054Z,16.63
2018-08-31T22:54:41.777Z,16.37
2018-08-31T22:56:47.695Z,16.03
2018-08-31T22:58:52.728Z,16.70
2018-08-31T23:00:58.394Z,14.77
2018-08-31T23:03:03.580Z,15.43
2018-08-31T23:05:09.394Z,16.50
2018-08-31T23:07:19.001Z,15.93
2018-08-31T23:09:24.240Z,15.33
2018-08-31T23:11:29.444Z,14.80
2018-08-31T23:13:35.043Z,14.13
2018-08-31T23:15:40.713Z,16.17
2018-08-31T23:17:47.265Z,15.50
2018-08-31T23:19:52.912Z,15.20
2018-08-31T23:21:58.273Z,14.70
2018-08-31T23:24:04.642Z,14.30
2018-08-31T23:26:10.051Z,14.03
2018-08-31T23:28:15.305Z,14.97
2018-08-31T23:30:21.440Z,14.10
2018-08-31T23:32:27.083Z,13.87
2018-08-31T23:34:32.582Z,14.60
2018-08-31T23:36:37.994Z,13.87
2018-08-31T23:38:43.162Z,15.20
2018-08-31T23:40:48.726Z,16.13
2018-08-31T23:42:53.967Z,14.03
2018-08-31T23:44:59.657Z,14.00
2018-08-31T23:47:04.918Z,15.03
2018-08-31T23:49:10.265Z,14.60
2018-08-31T23:51:15.710Z,13.53
2018-08-31T23:53:21.666Z,14.13
2018-08-31T23:55:27.006Z,14.70
2018-08-31T23:57:32.541Z,13.27
2018-08-31T23:59:37.906Z,15.33
